sensor_id;sensor_type;location;lat;lon;timestamp;temperature;humidity
7014;DHT22;3547;50.774;12.918;2023-08-20T00:02:08;23.30;1.00
7014;DHT22;3547;50.774;12.918;2023-08-20T00:12:29;23.30;1.00
7014;DHT22;3547;50.774;12.918;2023-08-20T01:47:57;23.00;1.00
7014;DHT22;3547;50.774;12.918;2023-08-20T01:50:27;23.00;1.00
7014;DHT22;3547;50.774;12.918;2023-08-20T01:52:53;23.00;1.00
7014;DHT22;3547;50.774;12.918;2023-08-20T01:55:20;23.00;1.00
7014;DHT22;3547;50.774;12.918;2023-08-20T01:57:46;22.90;1.00
7014;DHT22;3547;50.774;12.918;2023-08-20T02:00:13;22.90;1.00
7014;DHT22;3547;50.774;12.918;2023-08-20T02:02:39;22.90;1.00
7014;DHT22;3547;50.774;12.918;2023-08-20T02:05:11;22.90;1.00
7014;DHT22;3547;50.774;12.918;2023-08-20T02:07:38;22.90;1.00
7014;DHT22;3547;50.774;12.918;2023-08-20T02:10:05;22.90;1.00
7014;DHT22;3547;50.774;12.918;2023-08-20T02:12:32;22.90;1.00
7014;DHT22;3547;50.774;12.918;2023-08-20T02:15:04;22.90;1.00
7014;DHT22;3547;50.774;12.918;2023-08-20T02:17:31;22.90;1.00
7014;DHT22;3547;50.774;12.918;2023-08-20T02:20:12;22.90;1.00
7014;DHT22;3547;50.774;12.918;2023-08-20T02:22:42;22.90;1.00
7014;DHT22;3547;50.774;12.918;2023-08-20T02:25:11;22.90;1.00
7014;DHT22;3547;50.774;12.918;2023-08-20T02:27:37;22.90;1.00
7014;DHT22;3547;50.774;12.918;2023-08-20T02:30:04;22.90;1.00
7014;DHT22;3547;50.774;12.918;2023-08-20T02:32:30;22.80;1.00
7014;DHT22;3547;50.774;12.918;2023-08-20T02:34:59;22.80;1.00
7014;DHT22;3547;50.774;12.918;2023-08-20T02:37:25;22.80;1.00
7014;DHT22;3547;50.774;12.918;2023-08-20T02:39:55;22.80;1.00
7014;DHT22;3547;50.774;12.918;2023-08-20T02:42:25;22.80;1.00
7014;DHT22;3547;50.774;12.918;2023-08-20T02:44:51;22.80;1.00
7014;DHT22;3547;50.774;12.918;2023-08-20T02:47:17;22.70;1.00
7014;DHT22;3547;50.774;12.918;2023-08-20T02:49:44;22.70;1.00
7014;DHT22;3547;50.774;12.918;2023-08-20T02:52:10;22.70;1.00
7014;DHT22;3547;50.774;12.918;2023-08-20T02:54:37;22.70;1.00
7014;DHT22;3547;50.774;12.918;2023-08-20T02:57:03;22.70;1.00
7014;DHT22;3547;50.774;12.918;2023-08-20T02:59:29;22.70;1.00
7014;DHT22;3547;50.774;12.918;2023-08-20T03:01:55;22.70;1.00
7014;DHT22;3547;50.774;12.918;2023-08-20T03:04:25;22.60;1.00
7014;DHT22;3547;50.774;12.918;2023-08-20T03:06:52;22.70;1.00
7014;DHT22;3547;50.774;12.918;2023-08-20T03:09:18;22.70;1.00
7014;DHT22;3547;50.774;12.918;2023-08-20T03:11:44;22.60;1.00
7014;DHT22;3547;50.774;12.918;2023-08-20T03:14:10;22.60;1.00
7014;DHT22;3547;50.774;12.918;2023-08-20T03:16:37;22.60;1.00
7014;DHT22;3547;50.774;12.918;2023-08-20T03:22:27;22.60;1.00
7014;DHT22;3547;50.774;12.918;2023-08-20T03:24:53;22.60;1.00
7014;DHT22;3547;50.774;12.918;2023-08-20T03:27:20;22.70;1.00
7014;DHT22;3547;50.774;12.918;2023-08-20T03:29:46;22.70;1.00
7014;DHT22;3547;50.774;12.918;2023-08-20T03:32:13;22.60;1.00
7014;DHT22;3547;50.774;12.918;2023-08-20T03:34:39;22.60;1.00
7014;DHT22;3547;50.774;12.918;2023-08-20T03:37:05;22.60;1.00
7014;DHT22;3547;50.774;12.918;2023-08-20T03:39:32;22.60;1.00
7014;DHT22;3547;50.774;12.918;2023-08-20T03:41:59;22.60;1.00
7014;DHT22;3547;50.774;12.918;2023-08-20T03:44:25;22.50;1.00
7014;DHT22;3547;50.774;12.918;2023-08-20T03:46:51;22.50;1.00
7014;DHT22;3547;50.774;12.918;2023-08-20T03:49:18;22.50;1.00
7014;DHT22;3547;50.774;12.918;2023-08-20T03:51:44;22.40;1.00
7014;DHT22;3547;50.774;12.918;2023-08-20T03:54:11;22.40;1.00
7014;DHT22;3547;50.774;12.918;2023-08-20T03:56:37;22.40;1.00
7014;DHT22;3547;50.774;12.918;2023-08-20T03:59:03;22.40;1.00
7014;DHT22;3547;50.774;12.918;2023-08-20T04:01:30;22.40;1.00
7014;DHT22;3547;50.774;12.918;2023-08-20T04:03:56;22.40;1.00
7014;DHT22;3547;50.774;12.918;2023-08-20T04:06:22;22.40;1.00
7014;DHT22;3547;50.774;12.918;2023-08-20T04:08:48;22.40;1.00
7014;DHT22;3547;50.774;12.918;2023-08-20T04:11:15;22.40;1.00
7014;DHT22;3547;50.774;12.918;2023-08-20T04:13:41;22.40;1.00
7014;DHT22;3547;50.774;12.918;2023-08-20T04:16:10;22.30;1.00
7014;DHT22;3547;50.774;12.918;2023-08-20T04:18:36;22.30;1.00
7014;DHT22;3547;50.774;12.918;2023-08-20T04:21:02;22.40;1.00
7014;DHT22;3547;50.774;12.918;2023-08-20T04:23:28;22.30;1.00
7014;DHT22;3547;50.774;12.918;2023-08-20T04:25:55;22.40;1.00
7014;DHT22;3547;50.774;12.918;2023-08-20T04:28:21;22.40;1.00
7014;DHT22;3547;50.774;12.918;2023-08-20T04:30:54;22.40;1.00
7014;DHT22;3547;50.774;12.918;2023-08-20T04:33:20;22.40;1.00
7014;DHT22;3547;50.774;12.918;2023-08-20T04:35:48;22.40;1.00
7014;DHT22;3547;50.774;12.918;2023-08-20T04:38:16;22.40;1.00
7014;DHT22;3547;50.774;12.918;2023-08-20T04:40:46;22.30;1.00
7014;DHT22;3547;50.774;12.918;2023-08-20T04:43:13;22.30;1.00
7014;DHT22;3547;50.774;12.918;2023-08-20T04:45:41;22.30;1.00
7014;DHT22;3547;50.774;12.918;2023-08-20T04:48:07;22.30;1.00
7014;DHT22;3547;50.774;12.918;2023-08-20T04:50:34;22.30;1.00
7014;DHT22;3547;50.774;12.918;2023-08-20T04:53:00;22.30;1.00
7014;DHT22;3547;50.774;12.918;2023-08-20T04:55:28;22.30;1.00
7014;DHT22;3547;50.774;12.918;2023-08-20T04:57:55;22.40;1.00
7014;DHT22;3547;50.774;12.918;2023-08-20T05:00:27;22.40;1.00
7014;DHT22;3547;50.774;12.918;2023-08-20T05:02:54;22.40;1.00
7014;DHT22;3547;50.774;12.918;2023-08-20T05:05:22;22.40;1.00
7014;DHT22;3547;50.774;12.918;2023-08-20T05:07:51;22.40;1.00
7014;DHT22;3547;50.774;12.918;2023-08-20T05:10:18;22.50;1.00
7014;DHT22;3547;50.774;12.918;2023-08-20T05:12:44;22.40;1.00
7014;DHT22;3547;50.774;12.918;2023-08-20T05:15:24;22.40;1.00
7014;DHT22;3547;50.774;12.918;2023-08-20T05:17:52;22.40;1.00
7014;DHT22;3547;50.774;12.918;2023-08-20T05:20:19;22.50;1.00
7014;DHT22;3547;50.774;12.918;2023-08-20T05:22:46;22.40;1.00
7014;DHT22;3547;50.774;12.918;2023-08-20T05:25:18;22.40;1.00
7014;DHT22;3547;50.774;12.918;2023-08-20T05:27:54;22.40;1.00
7014;DHT22;3547;50.774;12.918;2023-08-20T05:30:22;22.40;1.00
7014;DHT22;3547;50.774;12.918;2023-08-20T05:32:49;22.40;1.00
7014;DHT22;3547;50.774;12.918;2023-08-20T05:35:15;22.30;1.00
7014;DHT22;3547;50.774;12.918;2023-08-20T05:37:42;22.20;1.00
7014;DHT22;3547;50.774;12.918;2023-08-20T05:40:12;22.20;1.00
7014;DHT22;3547;50.774;12.918;2023-08-20T05:42:39;22.30;1.00
7014;DHT22;3547;50.774;12.918;2023-08-20T05:45:08;22.20;1.00
7014;DHT22;3547;50.774;12.918;2023-08-20T05:47:38;22.20;1.00
7014;DHT22;3547;50.774;12.918;2023-08-20T05:50:21;22.20;1.00
7014;DHT22;3547;50.774;12.918;2023-08-20T05:52:51;22.20;1.00
7014;DHT22;3547;50.774;12.918;2023-08-20T05:55:21;22.20;1.00
7014;DHT22;3547;50.774;12.918;2023-08-20T05:57:47;22.20;1.00
7014;DHT22;3547;50.774;12.918;2023-08-20T06:00:13;22.20;1.00
7014;DHT22;3547;50.774;12.918;2023-08-20T06:02:41;22.20;1.00
7014;DHT22;3547;50.774;12.918;2023-08-20T06:05:11;22.30;1.00
7014;DHT22;3547;50.774;12.918;2023-08-20T06:07:40;22.40;1.00
7014;DHT22;3547;50.774;12.918;2023-08-20T06:10:08;22.40;1.00
7014;DHT22;3547;50.774;12.918;2023-08-20T06:12:38;22.40;1.00
7014;DHT22;3547;50.774;12.918;2023-08-20T06:17:42;22.40;1.00
7014;DHT22;3547;50.774;12.918;2023-08-20T06:44:06;23.70;1.00
7014;DHT22;3547;50.774;12.918;2023-08-20T07:08:19;24.50;1.00
7014;DHT22;3547;50.774;12.918;2023-08-20T07:10:59;24.50;1.00
7014;DHT22;3547;50.774;12.918;2023-08-20T07:13:30;24.50;1.00
7014;DHT22;3547;50.774;12.918;2023-08-20T07:16:00;24.50;1.00
7014;DHT22;3547;50.774;12.918;2023-08-20T07:18:39;24.50;1.00
7014;DHT22;3547;50.774;12.918;2023-08-20T07:21:14;24.40;1.00
7014;DHT22;3547;50.774;12.918;2023-08-20T07:51:30;25.20;1.00
7014;DHT22;3547;50.774;12.918;2023-08-20T07:53:59;25.40;1.00
7014;DHT22;3547;50.774;12.918;2023-08-20T07:56:26;25.40;1.00
7014;DHT22;3547;50.774;12.918;2023-08-20T07:58:52;25.40;1.00
7014;DHT22;3547;50.774;12.918;2023-08-20T08:01:19;25.40;1.00
7014;DHT22;3547;50.774;12.918;2023-08-20T08:03:45;25.30;1.00
7014;DHT22;3547;50.774;12.918;2023-08-20T08:06:11;25.40;1.00
7014;DHT22;3547;50.774;12.918;2023-08-20T08:08:41;25.20;1.00
7014;DHT22;3547;50.774;12.918;2023-08-20T08:11:07;25.20;1.00
7014;DHT22;3547;50.774;12.918;2023-08-20T08:13:33;24.80;1.00
7014;DHT22;3547;50.774;12.918;2023-08-20T08:16:00;24.90;1.00
7014;DHT22;3547;50.774;12.918;2023-08-20T08:18:26;25.10;1.00
7014;DHT22;3547;50.774;12.918;2023-08-20T08:20:52;25.30;1.00
7014;DHT22;3547;50.774;12.918;2023-08-20T08:23:19;25.40;1.00
7014;DHT22;3547;50.774;12.918;2023-08-20T08:25:45;25.30;1.00
7014;DHT22;3547;50.774;12.918;2023-08-20T08:28:11;25.30;1.00
7014;DHT22;3547;50.774;12.918;2023-08-20T08:30:40;25.50;1.00
7014;DHT22;3547;50.774;12.918;2023-08-20T08:33:07;25.50;1.00
7014;DHT22;3547;50.774;12.918;2023-08-20T08:35:33;25.20;1.00
7014;DHT22;3547;50.774;12.918;2023-08-20T08:37:59;25.40;1.00
7014;DHT22;3547;50.774;12.918;2023-08-20T08:40:28;25.30;1.00
7014;DHT22;3547;50.774;12.918;2023-08-20T08:42:55;25.20;1.00
7014;DHT22;3547;50.774;12.918;2023-08-20T08:45:22;25.30;1.00
7014;DHT22;3547;50.774;12.918;2023-08-20T08:47:49;25.50;1.00
7014;DHT22;3547;50.774;12.918;2023-08-20T08:50:15;25.60;1.00
7014;DHT22;3547;50.774;12.918;2023-08-20T08:52:42;25.70;1.00
7014;DHT22;3547;50.774;12.918;2023-08-20T08:55:11;25.60;1.00
7014;DHT22;3547;50.774;12.918;2023-08-20T08:57:37;25.50;1.00
7014;DHT22;3547;50.774;12.918;2023-08-20T09:00:06;25.30;1.00
7014;DHT22;3547;50.774;12.918;2023-08-20T09:02:35;25.00;1.00
7014;DHT22;3547;50.774;12.918;2023-08-20T09:05:05;25.10;1.00
7014;DHT22;3547;50.774;12.918;2023-08-20T09:07:33;25.00;1.00
7014;DHT22;3547;50.774;12.918;2023-08-20T09:09:59;25.00;1.00
7014;DHT22;3547;50.774;12.918;2023-08-20T09:12:34;25.00;1.00
7014;DHT22;3547;50.774;12.918;2023-08-20T09:15:01;25.10;1.00
7014;DHT22;3547;50.774;12.918;2023-08-20T09:17:28;25.20;1.00
7014;DHT22;3547;50.774;12.918;2023-08-20T09:19:56;25.20;1.00
7014;DHT22;3547;50.774;12.918;2023-08-20T09:22:27;25.10;1.00
7014;DHT22;3547;50.774;12.918;2023-08-20T09:24:56;25.30;1.00
7014;DHT22;3547;50.774;12.918;2023-08-20T09:27:23;25.70;1.00
7014;DHT22;3547;50.774;12.918;2023-08-20T09:29:56;25.70;1.00
7014;DHT22;3547;50.774;12.918;2023-08-20T09:32:44;25.90;1.00
7014;DHT22;3547;50.774;12.918;2023-08-20T09:35:18;25.90;1.00
7014;DHT22;3547;50.774;12.918;2023-08-20T09:37:46;25.70;1.00
7014;DHT22;3547;50.774;12.918;2023-08-20T09:40:12;25.50;1.00
7014;DHT22;3547;50.774;12.918;2023-08-20T09:42:42;25.70;1.00
7014;DHT22;3547;50.774;12.918;2023-08-20T09:45:09;25.90;1.00
7014;DHT22;3547;50.774;12.918;2023-08-20T09:47:40;25.70;1.00
7014;DHT22;3547;50.774;12.918;2023-08-20T09:50:10;25.50;1.00
7014;DHT22;3547;50.774;12.918;2023-08-20T09:52:48;25.40;1.00
7014;DHT22;3547;50.774;12.918;2023-08-20T09:55:21;25.70;1.00
7014;DHT22;3547;50.774;12.918;2023-08-20T09:58:06;25.90;1.00
7014;DHT22;3547;50.774;12.918;2023-08-20T10:04:18;26.00;1.00
7014;DHT22;3547;50.774;12.918;2023-08-20T10:06:44;26.00;1.00
7014;DHT22;3547;50.774;12.918;2023-08-20T10:09:11;26.10;1.00
7014;DHT22;3547;50.774;12.918;2023-08-20T10:11:40;25.90;1.00
7014;DHT22;3547;50.774;12.918;2023-08-20T10:14:07;26.00;1.00
7014;DHT22;3547;50.774;12.918;2023-08-20T10:16:36;26.00;1.00
7014;DHT22;3547;50.774;12.918;2023-08-20T10:19:06;26.20;1.00
7014;DHT22;3547;50.774;12.918;2023-08-20T10:21:32;26.00;1.00
7014;DHT22;3547;50.774;12.918;2023-08-20T10:24:04;26.00;1.00
7014;DHT22;3547;50.774;12.918;2023-08-20T10:26:33;25.80;1.00
7014;DHT22;3547;50.774;12.918;2023-08-20T10:29:38;26.10;1.00
7014;DHT22;3547;50.774;12.918;2023-08-20T10:32:12;26.30;1.00
7014;DHT22;3547;50.774;12.918;2023-08-20T10:34:42;26.30;1.00
7014;DHT22;3547;50.774;12.918;2023-08-20T10:37:12;26.20;1.00
7014;DHT22;3547;50.774;12.918;2023-08-20T10:39:38;26.40;1.00
7014;DHT22;3547;50.774;12.918;2023-08-20T10:45:07;26.20;1.00
7014;DHT22;3547;50.774;12.918;2023-08-20T10:52:50;26.50;1.00
7014;DHT22;3547;50.774;12.918;2023-08-20T10:55:22;26.50;1.00
7014;DHT22;3547;50.774;12.918;2023-08-20T10:57:56;26.70;1.00
7014;DHT22;3547;50.774;12.918;2023-08-20T12:31:28;30.00;1.00
7014;DHT22;3547;50.774;12.918;2023-08-20T12:50:01;31.40;1.00
7014;DHT22;3547;50.774;12.918;2023-08-20T12:52:35;31.40;1.00
7014;DHT22;3547;50.774;12.918;2023-08-20T12:55:17;31.40;1.00
7014;DHT22;3547;50.774;12.918;2023-08-20T12:57:58;31.60;1.00
7014;DHT22;3547;50.774;12.918;2023-08-20T13:00:26;31.70;1.00
7014;DHT22;3547;50.774;12.918;2023-08-20T13:02:59;31.00;1.00
7014;DHT22;3547;50.774;12.918;2023-08-20T17:03:12;33.20;1.00
7014;DHT22;3547;50.774;12.918;2023-08-20T17:05:40;32.20;1.00
7014;DHT22;3547;50.774;12.918;2023-08-20T17:08:08;31.60;1.00
7014;DHT22;3547;50.774;12.918;2023-08-20T17:10:35;31.10;1.00
7014;DHT22;3547;50.774;12.918;2023-08-20T17:18:30;29.90;1.00
7014;DHT22;3547;50.774;12.918;2023-08-20T17:21:08;29.50;1.00
7014;DHT22;3547;50.774;12.918;2023-08-20T17:26:20;29.10;1.00
7014;DHT22;3547;50.774;12.918;2023-08-20T17:29:00;28.90;1.00
7014;DHT22;3547;50.774;12.918;2023-08-20T17:31:32;28.60;1.00
7014;DHT22;3547;50.774;12.918;2023-08-20T17:34:00;28.30;1.00
7014;DHT22;3547;50.774;12.918;2023-08-20T17:36:35;28.00;1.00
7014;DHT22;3547;50.774;12.918;2023-08-20T17:39:04;27.70;1.00
7014;DHT22;3547;50.774;12.918;2023-08-20T17:41:32;27.60;1.00
7014;DHT22;3547;50.774;12.918;2023-08-20T17:43:59;27.50;1.00
7014;DHT22;3547;50.774;12.918;2023-08-20T17:46:44;27.40;1.00
7014;DHT22;3547;50.774;12.918;2023-08-20T17:49:11;27.10;1.00
7014;DHT22;3547;50.774;12.918;2023-08-20T17:51:38;27.00;1.00
7014;DHT22;3547;50.774;12.918;2023-08-20T17:54:07;26.90;1.00
7014;DHT22;3547;50.774;12.918;2023-08-20T17:56:34;26.80;1.00
7014;DHT22;3547;50.774;12.918;2023-08-20T17:59:03;26.60;1.00
7014;DHT22;3547;50.774;12.918;2023-08-20T18:01:29;26.30;1.00
7014;DHT22;3547;50.774;12.918;2023-08-20T18:03:55;26.20;1.00
7014;DHT22;3547;50.774;12.918;2023-08-20T18:06:21;26.20;1.00
7014;DHT22;3547;50.774;12.918;2023-08-20T18:08:50;26.00;1.00
7014;DHT22;3547;50.774;12.918;2023-08-20T18:11:16;26.00;1.00
7014;DHT22;3547;50.774;12.918;2023-08-20T18:13:43;25.80;1.00
7014;DHT22;3547;50.774;12.918;2023-08-20T18:16:09;25.80;1.00
7014;DHT22;3547;50.774;12.918;2023-08-20T18:18:36;25.80;1.00
7014;DHT22;3547;50.774;12.918;2023-08-20T18:21:02;25.70;1.00
7014;DHT22;3547;50.774;12.918;2023-08-20T18:23:28;25.50;1.00
7014;DHT22;3547;50.774;12.918;2023-08-20T18:25:56;25.30;1.00
7014;DHT22;3547;50.774;12.918;2023-08-20T18:28:23;25.30;1.00
7014;DHT22;3547;50.774;12.918;2023-08-20T18:30:50;25.20;1.00
7014;DHT22;3547;50.774;12.918;2023-08-20T18:33:17;25.20;1.00
7014;DHT22;3547;50.774;12.918;2023-08-20T18:35:43;25.10;1.00
7014;DHT22;3547;50.774;12.918;2023-08-20T18:41:01;25.10;1.00
7014;DHT22;3547;50.774;12.918;2023-08-20T18:43:29;25.00;1.00
7014;DHT22;3547;50.774;12.918;2023-08-20T18:45:56;24.90;1.00
7014;DHT22;3547;50.774;12.918;2023-08-20T18:48:23;24.80;1.00
7014;DHT22;3547;50.774;12.918;2023-08-20T18:50:49;24.70;1.00
7014;DHT22;3547;50.774;12.918;2023-08-20T18:53:17;24.70;1.00
7014;DHT22;3547;50.774;12.918;2023-08-20T18:55:43;24.60;1.00
7014;DHT22;3547;50.774;12.918;2023-08-20T18:58:09;24.50;1.00
7014;DHT22;3547;50.774;12.918;2023-08-20T19:00:35;24.40;1.00
7014;DHT22;3547;50.774;12.918;2023-08-20T19:03:02;24.30;1.00
7014;DHT22;3547;50.774;12.918;2023-08-20T19:05:29;24.20;1.00
7014;DHT22;3547;50.774;12.918;2023-08-20T19:07:55;24.20;1.00
7014;DHT22;3547;50.774;12.918;2023-08-20T19:10:22;24.20;1.00
7014;DHT22;3547;50.774;12.918;2023-08-20T19:12:48;24.00;1.00
7014;DHT22;3547;50.774;12.918;2023-08-20T19:15:15;23.90;1.00
7014;DHT22;3547;50.774;12.918;2023-08-20T19:17:44;23.90;1.00
7014;DHT22;3547;50.774;12.918;2023-08-20T19:20:10;23.90;1.00
7014;DHT22;3547;50.774;12.918;2023-08-20T19:22:41;23.80;1.00
7014;DHT22;3547;50.774;12.918;2023-08-20T19:25:11;23.70;1.00
7014;DHT22;3547;50.774;12.918;2023-08-20T19:27:37;23.70;1.00
7014;DHT22;3547;50.774;12.918;2023-08-20T19:30:04;23.70;1.00
7014;DHT22;3547;50.774;12.918;2023-08-20T19:32:33;23.70;1.00
7014;DHT22;3547;50.774;12.918;2023-08-20T19:35:01;23.70;1.00
7014;DHT22;3547;50.774;12.918;2023-08-20T19:37:28;23.70;1.00
7014;DHT22;3547;50.774;12.918;2023-08-20T19:39:55;23.70;1.00
7014;DHT22;3547;50.774;12.918;2023-08-20T19:42:21;23.70;1.00
7014;DHT22;3547;50.774;12.918;2023-08-20T19:44:47;23.60;1.00
7014;DHT22;3547;50.774;12.918;2023-08-20T19:47:13;23.50;1.00
7014;DHT22;3547;50.774;12.918;2023-08-20T19:49:39;23.40;1.00
7014;DHT22;3547;50.774;12.918;2023-08-20T19:52:06;23.40;1.00
7014;DHT22;3547;50.774;12.918;2023-08-20T19:54:32;23.40;1.00
7014;DHT22;3547;50.774;12.918;2023-08-20T19:57:01;23.40;1.00
7014;DHT22;3547;50.774;12.918;2023-08-20T19:59:27;23.30;1.00
7014;DHT22;3547;50.774;12.918;2023-08-20T20:01:53;23.30;1.00
7014;DHT22;3547;50.774;12.918;2023-08-20T20:04:22;23.30;1.00
7014;DHT22;3547;50.774;12.918;2023-08-20T20:06:49;23.20;1.00
7014;DHT22;3547;50.774;12.918;2023-08-20T20:09:16;23.30;1.00
7014;DHT22;3547;50.774;12.918;2023-08-20T20:11:42;23.20;1.00
7014;DHT22;3547;50.774;12.918;2023-08-20T20:14:08;23.10;1.00
7014;DHT22;3547;50.774;12.918;2023-08-20T20:16:39;23.10;1.00
7014;DHT22;3547;50.774;12.918;2023-08-20T20:19:08;23.10;1.00
7014;DHT22;3547;50.774;12.918;2023-08-20T20:21:36;22.90;1.00
7014;DHT22;3547;50.774;12.918;2023-08-20T20:24:04;23.00;1.00
7014;DHT22;3547;50.774;12.918;2023-08-20T20:26:31;23.00;1.00
7014;DHT22;3547;50.774;12.918;2023-08-20T20:28:57;23.00;1.00
7014;DHT22;3547;50.774;12.918;2023-08-20T20:31:23;22.90;1.00
7014;DHT22;3547;50.774;12.918;2023-08-20T20:33:49;22.80;1.00
7014;DHT22;3547;50.774;12.918;2023-08-20T20:36:15;22.80;1.00
7014;DHT22;3547;50.774;12.918;2023-08-20T20:42:04;22.70;1.00
7014;DHT22;3547;50.774;12.918;2023-08-20T20:44:30;22.70;1.00
7014;DHT22;3547;50.774;12.918;2023-08-20T20:46:57;22.70;1.00
7014;DHT22;3547;50.774;12.918;2023-08-20T20:49:23;22.70;1.00
7014;DHT22;3547;50.774;12.918;2023-08-20T20:51:50;22.60;1.00
7014;DHT22;3547;50.774;12.918;2023-08-20T20:54:17;22.60;1.00
7014;DHT22;3547;50.774;12.918;2023-08-20T20:56:43;22.70;1.00
7014;DHT22;3547;50.774;12.918;2023-08-20T20:59:09;22.70;1.00
7014;DHT22;3547;50.774;12.918;2023-08-20T21:01:35;22.60;1.00
7014;DHT22;3547;50.774;12.918;2023-08-20T21:04:01;22.60;1.00
7014;DHT22;3547;50.774;12.918;2023-08-20T21:06:30;22.50;1.00
7014;DHT22;3547;50.774;12.918;2023-08-20T21:08:56;22.60;1.00
7014;DHT22;3547;50.774;12.918;2023-08-20T21:11:25;22.50;1.00
7014;DHT22;3547;50.774;12.918;2023-08-20T21:13:52;22.50;1.00
7014;DHT22;3547;50.774;12.918;2023-08-20T21:16:18;22.50;1.00
7014;DHT22;3547;50.774;12.918;2023-08-20T21:18:46;22.40;1.00
7014;DHT22;3547;50.774;12.918;2023-08-20T21:21:12;22.40;1.00
7014;DHT22;3547;50.774;12.918;2023-08-20T21:23:43;22.40;1.00
7014;DHT22;3547;50.774;12.918;2023-08-20T21:26:12;22.40;1.00
7014;DHT22;3547;50.774;12.918;2023-08-20T21:28:38;22.40;1.00
7014;DHT22;3547;50.774;12.918;2023-08-20T21:31:04;22.30;1.00
7014;DHT22;3547;50.774;12.918;2023-08-20T21:33:34;22.30;1.00
7014;DHT22;3547;50.774;12.918;2023-08-20T21:36:00;22.30;1.00
7014;DHT22;3547;50.774;12.918;2023-08-20T21:38:26;22.30;1.00
7014;DHT22;3547;50.774;12.918;2023-08-20T21:40:52;22.20;1.00
7014;DHT22;3547;50.774;12.918;2023-08-20T21:43:19;22.20;1.00
7014;DHT22;3547;50.774;12.918;2023-08-20T21:45:45;22.20;1.00
7014;DHT22;3547;50.774;12.918;2023-08-20T21:48:12;22.20;1.00
7014;DHT22;3547;50.774;12.918;2023-08-20T21:50:41;22.10;1.00
7014;DHT22;3547;50.774;12.918;2023-08-20T21:53:07;22.10;1.00
7014;DHT22;3547;50.774;12.918;2023-08-20T21:55:34;22.00;1.00
7014;DHT22;3547;50.774;12.918;2023-08-20T21:58:00;22.00;1.00
7014;DHT22;3547;50.774;12.918;2023-08-20T22:00:26;22.10;1.00
7014;DHT22;3547;50.774;12.918;2023-08-20T22:02:53;22.10;1.00
7014;DHT22;3547;50.774;12.918;2023-08-20T22:05:20;22.10;1.00
7014;DHT22;3547;50.774;12.918;2023-08-20T22:07:48;22.10;1.00
7014;DHT22;3547;50.774;12.918;2023-08-20T22:10:16;22.00;1.00
7014;DHT22;3547;50.774;12.918;2023-08-20T22:12:46;22.10;1.00
7014;DHT22;3547;50.774;12.918;2023-08-20T22:15:12;22.00;1.00
7014;DHT22;3547;50.774;12.918;2023-08-20T22:17:42;21.90;1.00
7014;DHT22;3547;50.774;12.918;2023-08-20T22:20:09;21.90;1.00
7014;DHT22;3547;50.774;12.918;2023-08-20T22:22:36;21.90;1.00
7014;DHT22;3547;50.774;12.918;2023-08-20T22:25:04;21.90;1.00
7014;DHT22;3547;50.774;12.918;2023-08-20T22:27:31;21.90;1.00
7014;DHT22;3547;50.774;12.918;2023-08-20T22:29:57;21.90;1.00
7014;DHT22;3547;50.774;12.918;2023-08-20T22:32:23;21.90;1.00
7014;DHT22;3547;50.774;12.918;2023-08-20T22:34:50;21.80;1.00
7014;DHT22;3547;50.774;12.918;2023-08-20T22:37:16;21.80;1.00
7014;DHT22;3547;50.774;12.918;2023-08-20T22:39:43;21.80;1.00
7014;DHT22;3547;50.774;12.918;2023-08-20T22:42:09;21.70;1.00
7014;DHT22;3547;50.774;12.918;2023-08-20T22:44:35;21.70;1.00
7014;DHT22;3547;50.774;12.918;2023-08-20T22:47:02;21.70;1.00
7014;DHT22;3547;50.774;12.918;2023-08-20T22:49:28;21.70;1.00
7014;DHT22;3547;50.774;12.918;2023-08-20T22:51:57;21.60;1.00
7014;DHT22;3547;50.774;12.918;2023-08-20T22:54:23;21.60;1.00
7014;DHT22;3547;50.774;12.918;2023-08-20T22:56:49;21.70;1.00
7014;DHT22;3547;50.774;12.918;2023-08-20T22:59:16;21.60;1.00
7014;DHT22;3547;50.774;12.918;2023-08-20T23:01:44;21.60;1.00
7014;DHT22;3547;50.774;12.918;2023-08-20T23:04:13;21.50;1.00
7014;DHT22;3547;50.774;12.918;2023-08-20T23:06:40;21.50;1.00
7014;DHT22;3547;50.774;12.918;2023-08-20T23:09:07;21.50;1.00
7014;DHT22;3547;50.774;12.918;2023-08-20T23:11:33;21.60;1.00
7014;DHT22;3547;50.774;12.918;2023-08-20T23:14:00;21.60;1.00
7014;DHT22;3547;50.774;12.918;2023-08-20T23:16:26;21.60;1.00
7014;DHT22;3547;50.774;12.918;2023-08-20T23:18:52;21.60;1.00
7014;DHT22;3547;50.774;12.918;2023-08-20T23:21:18;21.50;1.00
7014;DHT22;3547;50.774;12.918;2023-08-20T23:23:44;21.40;1.00
7014;DHT22;3547;50.774;12.918;2023-08-20T23:26:10;21.40;1.00
7014;DHT22;3547;50.774;12.918;2023-08-20T23:28:36;21.40;1.00
7014;DHT22;3547;50.774;12.918;2023-08-20T23:31:07;21.40;1.00
7014;DHT22;3547;50.774;12.918;2023-08-20T23:33:35;21.50;1.00
7014;DHT22;3547;50.774;12.918;2023-08-20T23:36:05;21.40;1.00
7014;DHT22;3547;50.774;12.918;2023-08-20T23:38:31;21.40;1.00
7014;DHT22;3547;50.774;12.918;2023-08-20T23:41:05;21.30;1.00
7014;DHT22;3547;50.774;12.918;2023-08-20T23:43:32;21.40;1.00
7014;DHT22;3547;50.774;12.918;2023-08-20T23:45:58;21.30;1.00
7014;DHT22;3547;50.774;12.918;2023-08-20T23:48:24;21.20;1.00
7014;DHT22;3547;50.774;12.918;2023-08-20T23:50:50;21.20;1.00
7014;DHT22;3547;50.774;12.918;2023-08-20T23:53:16;21.20;1.00
7014;DHT22;3547;50.774;12.918;2023-08-20T23:55:43;21.10;1.00
7014;DHT22;3547;50.774;12.918;2023-08-20T23:58:09;21.10;1.00
